Alpharetta, GA (30022)

11:42 AM EDT on August 20, 2014 (GMT -0400)
Lauren Hall | Change Station
CLOSE
Current Station
Personal Weather Station
Location: Alpharetta, GA
Elevation: 1106 ft
Nearby Weather Stations

Elev 1106 ft 34.03 °N, 84.25 °W | Updated 6 minutes ago

Mostly Cloudy
Mostly Cloudy
81.7 °F
Feels Like 89 °F
N
3.7
Wind Variable Wind from NNE

Today
High -- | Low -- °F
--% Chance of Precip.
Yesterday
High -- | Low -- °F
Precip. -- in
7:02 AM 8:18 PM
Waning Crescent, 21% visible
Pressure 30.08 in
Visibility 7.0 miles
Clouds Mostly Cloudy 1800 ft
Heat Index 89 °F
Dew Point 77 °F
Humidity 85%
Rainfall 0.02 in
Snow Depth Not available.
UV 4 out of 12
Pollen 8.30 out of 12
Ozone Good
PM2.5 Moderate
Flu Activity Not available.
SPECI KPDK 201519Z 26007KT 220V300 7SM BKN018 28/23 A3008 RMK AO2

More Conditions Fewer Conditions

Pressure 30.08 in
Visibility 7.0 miles
Clouds Mostly Cloudy 1800 ft
Heat Index 89 °F
Dew Point 77 °F
Humidity 85%
Rainfall 0.02 in
Snow Depth Not available.
UV 4 out of 12
Pollen 8.30 out of 12
Ozone Good
PM2.5 Moderate
Flu Activity Not available.
SPECI KPDK 201519Z 26007KT 220V300 7SM BKN018 28/23 A3008 RMK AO2

More Conditions Fewer Conditions

10-Day Weather Forecast

Almanac

Astronomy

Aug. 20, 2014 Rise Set
Actual Time 7:02 AM EDT 8:18 PM EDT
Civil Twilight 6:35 AM EDT 8:44 PM EDT
Nautical Twilight 6:04 AM EDT 9:15 PM EDT
Astronomical Twilight 5:32 AM EDT 9:47 PM EDT
Moon 2:46 AM EDT 4:57 PM EDT
Length of Visible Light 14h 08m
Length of Day
13h 15m
Tomorrow will be 1m 56s shorter.
Waning Crescent, 21% of the Moon is Illuminated
Today
Waning Crescent
Aug 25
New
Sep 2
First Quarter
Sep 8
Full
Sep 15
Last Quarter

Today's Extremes

State Highs State Lows

Community

WunderPhotos

Upload Photos

1,745,668 photos uploaded!

WunderBlogs® & News

Nearby

Air Quality

  Air Quality AQ Index Pollutant
Yesterday Good
PM10
Yesterday Good
OZONE
Current Moderate
PM2.5
Current Good
OZONE
Wednesday Moderate
PM2.5
Wednesday Good
OZONE

Snow Depth

Station Depth Elevation
No new snow has been reported.

Earthquake Activity

City Distance Mag. Time & Date
No recent earthquake activity has been reported nearby.
Minimum magnitude displayed is 2.5.

Coastal Water Temperatures

Place Temperature
No Stations Reporting

Nearby Weather Stations